Time;durP1;ratioP1;P1;durP2;ratioP2;P2;SDS_P1;SDS_P2;PMS_P1;PMS_P2;Temp;Humidity;BMP_temperature;BMP_pressure;BME280_temperature;BME280_humidity;BME280_pressure;Samples;Min_cycle;Max_cycle;Signal;HPM_P1;HPM_P2
2022/09/06 00:00:33;;;;;;;0.40;0.40;;;20.30;99.90;;;;;;5028162;28;20044;-82
2022/09/06 00:02:59;;;;;;;0.40;0.40;;;20.30;99.90;;;;;;5029387;28;20045;-82
2022/09/06 00:05:27;;;;;;;0.40;0.40;;;20.30;99.90;;;;;;5047547;28;20519;-82
2022/09/06 00:07:53;;;;;;;0.38;0.38;;;20.20;99.90;;;;;;5045761;28;20041;-83
2022/09/06 00:10:19;;;;;;;0.32;0.32;;;20.20;99.90;;;;;;5048923;28;20094;-82
2022/09/06 00:12:46;;;;;;;0.40;0.40;;;20.20;99.90;;;;;;5027092;28;21960;-82
2022/09/06 00:15:12;;;;;;;0.40;0.40;;;20.10;99.90;;;;;;5046571;28;20047;-82
2022/09/06 00:17:38;;;;;;;0.40;0.40;;;20.20;99.90;;;;;;5045011;28;20945;-82
2022/09/06 00:20:04;;;;;;;0.40;0.40;;;20.20;99.90;;;;;;5045304;28;20048;-82
2022/09/06 00:22:30;;;;;;;0.40;0.40;;;20.30;99.90;;;;;;5028780;28;20044;-82
2022/09/06 00:24:56;;;;;;;0.40;0.40;;;20.20;99.90;;;;;;5046450;28;20595;-82
2022/09/06 00:27:22;;;;;;;0.40;0.40;;;20.20;99.90;;;;;;5020110;28;20091;-81
2022/09/06 00:29:47;;;;;;;0.40;0.40;;;20.20;99.90;;;;;;5010022;28;20057;-83
2022/09/06 00:32:13;;;;;;;0.40;0.40;;;20.20;99.90;;;;;;5030500;28;20144;-81
2022/09/06 00:34:39;;;;;;;0.40;0.40;;;20.00;99.90;;;;;;5024902;28;20087;-82
2022/09/06 00:37:05;;;;;;;0.40;0.40;;;20.00;99.90;;;;;;5072894;28;20051;-82
2022/09/06 00:39:31;;;;;;;0.35;0.35;;;20.10;99.90;;;;;;5068938;28;20353;-82
2022/09/06 00:41:56;;;;;;;0.38;0.38;;;20.20;99.90;;;;;;5071582;28;20698;-82
2022/09/06 00:44:22;;;;;;;0.40;0.40;;;20.10;99.90;;;;;;5071015;28;20044;-82
2022/09/06 00:46:51;;;;;;;0.40;0.40;;;20.10;99.90;;;;;;5076865;28;20069;-82
2022/09/06 00:49:24;;;;;;;0.40;0.40;;;20.00;99.90;;;;;;5064681;28;20050;-82
2022/09/06 00:51:57;;;;;;;0.40;0.40;;;20.00;99.90;;;;;;5041263;28;20481;-82
2022/09/06 00:54:23;;;;;;;0.40;0.40;;;20.00;99.90;;;;;;5074526;28;20480;-81
2022/09/06 00:56:49;;;;;;;0.40;0.40;;;19.90;99.90;;;;;;5069066;28;20044;-83
2022/09/06 00:59:16;;;;;;;0.40;0.40;;;19.70;99.90;;;;;;5068518;28;20130;-82
2022/09/06 01:01:42;;;;;;;0.40;0.40;;;19.40;99.90;;;;;;5046241;28;20048;-82
2022/09/06 01:04:08;;;;;;;0.40;0.40;;;19.40;99.90;;;;;;5073419;28;20447;-81
2022/09/06 01:06:55;;;;;;;0.40;0.40;;;19.40;99.90;;;;;;5072180;28;20047;-81
2022/09/06 01:09:52;;;;;;;0.40;0.40;;;19.30;99.90;;;;;;5071464;28;20098;-81
2022/09/06 01:12:41;;;;;;;0.40;0.40;;;19.30;99.90;;;;;;5032946;28;20060;-81
2022/09/06 01:15:23;;;;;;;0.40;0.40;;;19.10;99.90;;;;;;5058603;28;20055;-81
2022/09/06 01:18:44;;;;;;;0.40;0.40;;;19.10;99.90;;;;;;5081038;28;20128;-81
2022/09/06 01:21:27;;;;;;;0.40;0.40;;;19.10;99.90;;;;;;4984061;28;20034;-81
2022/09/06 01:24:11;;;;;;;0.40;0.40;;;19.10;99.90;;;;;;4967395;28;20057;-81
2022/09/06 01:27:02;;;;;;;0.40;0.40;;;19.20;99.90;;;;;;5053183;28;20504;-81
2022/09/06 01:29:50;;;;;;;0.40;0.40;;;19.20;99.90;;;;;;5075106;28;20559;-81
2022/09/06 01:32:50;;;;;;;0.40;0.40;;;19.10;99.90;;;;;;5082028;28;20300;-81
2022/09/06 01:35:46;;;;;;;0.40;0.40;;;19.00;99.90;;;;;;5068102;28;20513;-81
2022/09/06 01:38:14;;;;;;;0.40;0.40;;;18.60;99.90;;;;;;5081136;28;20056;-81
2022/09/06 01:40:40;;;;;;;0.40;0.40;;;18.50;99.90;;;;;;5059944;28;21065;-81
2022/09/06 01:43:11;;;;;;;0.30;0.30;;;18.60;99.90;;;;;;5078041;28;20056;-80
2022/09/06 01:45:55;;;;;;;0.40;0.40;;;18.70;99.90;;;;;;5080547;28;20052;-81
2022/09/06 01:48:38;;;;;;;0.30;0.30;;;18.90;99.90;;;;;;5081314;28;20044;-81
2022/09/06 01:51:43;;;;;;;0.40;0.40;;;18.80;99.90;;;;;;5078021;28;20798;-81
2022/09/06 01:54:29;;;;;;;0.50;0.50;;;18.70;99.90;;;;;;5081711;28;20047;-81
2022/09/06 01:57:08;;;;;;;0.40;0.40;;;18.80;99.90;;;;;;5086406;28;20075;-81
2022/09/06 01:59:57;;;;;;;0.40;0.40;;;18.80;99.90;;;;;;5082658;28;20080;-81
2022/09/06 02:02:43;;;;;;;0.40;0.40;;;18.70;99.90;;;;;;5083653;28;20052;-81
2022/09/06 02:05:26;;;;;;;0.40;0.40;;;18.70;99.90;;;;;;5066369;28;20047;-81
2022/09/06 02:07:58;;;;;;;0.40;0.40;;;18.60;99.90;;;;;;5083039;28;20408;-82
2022/09/06 02:10:48;;;;;;;0.40;0.40;;;18.70;99.90;;;;;;5067771;28;20056;-81
2022/09/06 02:13:16;;;;;;;0.40;0.40;;;18.80;99.90;;;;;;5084004;28;20044;-82
2022/09/06 02:15:51;;;;;;;0.40;0.40;;;18.90;99.90;;;;;;5082239;28;20044;-81
2022/09/06 02:18:28;;;;;;;0.40;0.40;;;18.90;99.90;;;;;;5082043;28;20127;-81
2022/09/06 02:20:57;;;;;;;0.40;0.40;;;18.80;99.90;;;;;;5085338;28;20154;-81
2022/09/06 02:23:27;;;;;;;0.40;0.40;;;18.90;99.90;;;;;;5083066;28;20059;-81
2022/09/06 02:25:58;;;;;;;0.40;0.40;;;18.90;99.90;;;;;;5046689;28;20181;-82
2022/09/06 02:28:24;;;;;;;0.40;0.40;;;18.90;99.90;;;;;;5081622;28;20128;-82
2022/09/06 02:30:56;;;;;;;0.40;0.40;;;18.80;99.90;;;;;;5085032;28;20079;-81
2022/09/06 02:33:27;;;;;;;0.40;0.40;;;18.90;99.90;;;;;;5084903;28;20590;-82
2022/09/06 02:35:54;;;;;;;0.40;0.40;;;18.70;99.90;;;;;;5066133;28;20044;-81
2022/09/06 02:38:25;;;;;;;0.40;0.40;;;18.70;99.90;;;;;;5082455;28;20071;-81
2022/09/06 02:40:53;;;;;;;0.40;0.40;;;18.80;99.90;;;;;;5078594;28;20058;-81
2022/09/06 02:43:20;;;;;;;0.40;0.40;;;18.80;99.90;;;;;;5082144;28;20035;-81
2022/09/06 02:45:45;;;;;;;0.40;0.40;;;18.90;99.90;;;;;;5066290;28;20052;-81
2022/09/06 02:48:11;;;;;;;0.40;0.40;;;18.80;99.90;;;;;;5083728;28;20426;-81
2022/09/06 02:50:37;;;;;;;0.40;0.40;;;18.90;99.90;;;;;;5082727;28;20359;-81
2022/09/06 02:53:14;;;;;;;0.40;0.40;;;18.90;99.90;;;;;;5085024;28;20051;-81
2022/09/06 02:55:40;;;;;;;0.40;0.40;;;18.90;99.90;;;;;;5082395;28;20043;-81
2022/09/06 02:58:10;;;;;;;0.40;0.40;;;18.90;99.90;;;;;;5082725;28;20044;-81
2022/09/06 03:00:36;;;;;;;0.40;0.40;;;18.80;99.90;;;;;;5083604;28;20245;-81
2022/09/06 03:03:02;;;;;;;0.40;0.40;;;18.80;99.90;;;;;;5083856;28;20132;-81
2022/09/06 03:05:28;;;;;;;0.50;0.50;;;18.70;99.90;;;;;;5085563;28;20095;-81
2022/09/06 03:07:55;;;;;;;0.57;0.57;;;18.70;99.90;;;;;;5079960;28;20052;-81
2022/09/06 03:10:21;;;;;;;0.40;0.40;;;18.60;99.90;;;;;;5065420;28;20067;-81
2022/09/06 03:12:47;;;;;;;0.40;0.40;;;18.50;99.90;;;;;;5064396;28;20062;-81
2022/09/06 03:15:15;;;;;;;0.40;0.40;;;18.30;99.90;;;;;;5083271;28;20039;-82
2022/09/06 03:17:41;;;;;;;0.45;0.45;;;18.30;99.90;;;;;;5080848;28;20063;-81
2022/09/06 03:20:08;;;;;;;0.40;0.40;;;18.30;99.90;;;;;;5084753;28;20164;-81
2022/09/06 03:22:38;;;;;;;0.50;0.50;;;18.30;99.90;;;;;;5083869;28;20043;-81
2022/09/06 03:25:08;;;;;;;0.40;0.40;;;18.30;99.90;;;;;;5082803;28;20119;-81
2022/09/06 03:27:34;;;;;;;0.40;0.40;;;18.20;99.90;;;;;;5080907;28;20044;-82
2022/09/06 03:30:00;;;;;;;0.40;0.40;;;18.30;99.90;;;;;;5065662;28;20036;-82
2022/09/06 03:32:26;;;;;;;0.40;0.40;;;18.40;99.90;;;;;;5082363;28;20656;-82
2022/09/06 03:34:51;;;;;;;0.40;0.40;;;18.50;99.90;;;;;;5083683;28;20110;-82
2022/09/06 03:37:18;;;;;;;0.40;0.40;;;18.50;99.90;;;;;;5084045;28;20121;-82
2022/09/06 03:39:44;;;;;;;0.40;0.40;;;18.50;99.90;;;;;;5064442;28;20051;-81
2022/09/06 03:42:10;;;;;;;0.40;0.40;;;18.30;99.90;;;;;;5083100;28;20044;-81
2022/09/06 03:44:36;;;;;;;0.45;0.45;;;18.50;99.90;;;;;;5081943;28;20044;-82
2022/09/06 03:47:02;;;;;;;0.40;0.40;;;18.60;99.90;;;;;;5083692;28;20062;-82
2022/09/06 03:49:28;;;;;;;0.40;0.40;;;18.60;99.90;;;;;;5085861;28;20043;-82
2022/09/06 03:51:54;;;;;;;0.40;0.40;;;18.60;99.90;;;;;;5064903;28;20046;-81
2022/09/06 03:54:20;;;;;;;0.40;0.40;;;18.60;99.90;;;;;;5057286;28;20162;-81
2022/09/06 03:56:45;;;;;;;0.40;0.40;;;18.70;99.90;;;;;;5067406;28;20511;-82
2022/09/06 03:59:11;;;;;;;0.40;0.40;;;18.70;99.90;;;;;;5081130;28;20589;-83
2022/09/06 04:01:37;;;;;;;0.40;0.40;;;18.70;99.90;;;;;;5080947;28;20096;-81
2022/09/06 04:04:03;;;;;;;0.40;0.40;;;18.60;99.90;;;;;;5065327;28;20048;-83
2022/09/06 04:06:28;;;;;;;0.40;0.40;;;18.80;99.90;;;;;;5050866;28;20126;-82
2022/09/06 04:08:54;;;;;;;0.40;0.40;;;18.80;99.90;;;;;;5080104;28;20044;-83
2022/09/06 04:11:20;;;;;;;0.40;0.40;;;18.80;99.90;;;;;;5064018;28;20533;-82
2022/09/06 04:13:45;;;;;;;0.50;0.50;;;18.80;99.90;;;;;;5080986;28;20067;-81
2022/09/06 04:16:11;;;;;;;0.40;0.40;;;18.80;99.90;;;;;;5077809;28;20036;-83
2022/09/06 04:18:37;;;;;;;0.40;0.40;;;18.80;99.90;;;;;;5083235;28;20885;-82
2022/09/06 04:21:03;;;;;;;0.40;0.40;;;18.80;99.90;;;;;;5065008;28;20058;-82
2022/09/06 04:23:28;;;;;;;0.40;0.40;;;18.80;99.90;;;;;;5065260;28;20043;-83
2022/09/06 04:25:56;;;;;;;0.40;0.40;;;18.80;99.90;;;;;;5083875;28;20039;-82
2022/09/06 04:28:23;;;;;;;0.40;0.40;;;18.80;99.90;;;;;;5065791;28;20048;-82
2022/09/06 04:31:00;;;;;;;0.40;0.40;;;18.80;99.90;;;;;;5080260;28;20075;-82
2022/09/06 04:33:27;;;;;;;0.40;0.40;;;18.80;99.90;;;;;;5083094;28;20155;-84
2022/09/06 04:35:55;;;;;;;0.40;0.40;;;18.80;99.90;;;;;;5080373;28;20048;-82
2022/09/06 04:38:22;;;;;;;0.40;0.40;;;18.90;99.90;;;;;;5079964;28;20078;-82
2022/09/06 04:40:48;;;;;;;0.40;0.40;;;18.80;99.90;;;;;;5062288;28;20075;-82
2022/09/06 04:43:14;;;;;;;0.40;0.40;;;18.80;99.90;;;;;;5049893;28;20532;-82
2022/09/06 04:45:40;;;;;;;0.40;0.40;;;18.80;99.90;;;;;;5077922;28;20110;-82
2022/09/06 04:48:06;;;;;;;0.40;0.40;;;18.80;99.90;;;;;;5062218;28;20059;-82
2022/09/06 04:50:32;;;;;;;0.40;0.40;;;18.70;99.90;;;;;;5085879;28;20547;-82
2022/09/06 04:52:57;;;;;;;0.40;0.40;;;18.70;99.90;;;;;;5089177;28;20114;-81
2022/09/06 04:55:25;;;;;;;0.40;0.40;;;18.70;99.90;;;;;;5087807;28;20043;-83
2022/09/06 04:57:51;;;;;;;0.40;0.40;;;18.70;99.90;;;;;;5088149;28;20087;-83
2022/09/06 05:00:17;;;;;;;0.40;0.40;;;18.70;99.90;;;;;;5088401;28;20111;-82
2022/09/06 05:02:43;;;;;;;0.40;0.40;;;18.60;99.90;;;;;;5085230;28;20064;-81
2022/09/06 05:05:09;;;;;;;0.40;0.40;;;18.50;99.90;;;;;;5070161;28;20161;-81
2022/09/06 05:07:35;;;;;;;0.40;0.40;;;18.40;99.90;;;;;;5085706;28;20141;-82
2022/09/06 05:10:01;;;;;;;0.40;0.40;;;18.30;99.90;;;;;;5088606;28;20484;-83
2022/09/06 05:12:27;;;;;;;0.40;0.40;;;18.30;99.90;;;;;;5091268;28;20162;-83
2022/09/06 05:14:53;;;;;;;0.40;0.40;;;18.30;99.90;;;;;;5066408;28;20769;-83
2022/09/06 05:17:18;;;;;;;0.40;0.40;;;18.30;99.90;;;;;;5088748;28;20043;-82
2022/09/06 05:19:44;;;;;;;0.40;0.40;;;18.20;99.90;;;;;;5089397;28;20603;-83
2022/09/06 05:22:11;;;;;;;0.40;0.40;;;18.10;99.90;;;;;;5071456;28;20055;-82
2022/09/06 05:24:36;;;;;;;0.40;0.40;;;17.80;99.90;;;;;;5085751;28;20043;-81
2022/09/06 05:27:03;;;;;;;0.40;0.40;;;17.80;99.90;;;;;;5085663;28;20055;-82
2022/09/06 05:29:29;;;;;;;0.40;0.40;;;17.80;99.90;;;;;;5085168;28;21089;-82
2022/09/06 05:31:55;;;;;;;0.30;0.30;;;17.70;99.90;;;;;;5067184;28;20115;-81
2022/09/06 05:34:21;;;;;;;0.40;0.40;;;17.70;99.90;;;;;;5090106;28;20083;-82
2022/09/06 05:36:47;;;;;;;0.40;0.40;;;17.60;99.90;;;;;;5087974;28;20143;-83
2022/09/06 05:39:13;;;;;;;0.40;0.40;;;17.50;99.90;;;;;;5084150;28;20496;-82
2022/09/06 05:41:38;;;;;;;0.40;0.40;;;17.50;99.90;;;;;;5087287;28;20036;-84
2022/09/06 05:44:05;;;;;;;0.40;0.40;;;17.50;99.90;;;;;;5087317;28;20052;-83
2022/09/06 05:46:31;;;;;;;0.40;0.40;;;17.50;99.90;;;;;;5058406;28;20113;-81
2022/09/06 05:49:06;;;;;;;0.40;0.40;;;17.50;99.90;;;;;;5055729;28;20127;-82
2022/09/06 05:51:32;;;;;;;0.40;0.40;;;17.50;99.90;;;;;;5070802;28;20076;-81
2022/09/06 05:53:58;;;;;;;0.40;0.40;;;17.60;99.90;;;;;;5069653;27;21754;-82
2022/09/06 05:56:24;;;;;;;0.40;0.40;;;17.70;99.90;;;;;;5055856;28;20048;-83
2022/09/06 05:58:50;;;;;;;0.40;0.40;;;17.70;99.90;;;;;;5083170;28;20503;-82
2022/09/06 06:01:28;;;;;;;0.40;0.40;;;17.70;99.90;;;;;;5068827;28;20040;-82
2022/09/06 06:03:55;;;;;;;0.47;0.47;;;17.70;99.90;;;;;;5064185;28;20558;-81
2022/09/06 06:06:22;;;;;;;0.50;0.50;;;17.60;99.90;;;;;;5060477;28;20106;-82
2022/09/06 06:08:48;;;;;;;0.40;0.40;;;17.60;99.90;;;;;;5049307;28;20051;-82
2022/09/06 06:11:15;;;;;;;0.40;0.40;;;17.70;99.90;;;;;;5057946;28;20050;-82
2022/09/06 06:13:42;;;;;;;0.50;0.50;;;17.70;99.90;;;;;;5072491;28;20052;-83
2022/09/06 06:16:10;;;;;;;0.45;0.45;;;17.70;99.90;;;;;;5056516;28;20875;-83
2022/09/06 06:18:35;;;;;;;0.47;0.47;;;17.60;99.90;;;;;;5073174;28;20115;-83
2022/09/06 06:21:15;;;;;;;0.40;0.40;;;17.70;99.90;;;;;;5074888;28;20061;-82
2022/09/06 06:23:43;;;;;;;0.40;0.40;;;17.70;99.90;;;;;;5071595;28;20694;-82
2022/09/06 06:26:10;;;;;;;0.40;0.40;;;17.60;99.90;;;;;;5070717;28;20040;-83
2022/09/06 06:28:37;;;;;;;0.40;0.40;;;17.50;99.90;;;;;;5055841;28;20074;-82
2022/09/06 06:31:04;;;;;;;0.40;0.40;;;17.50;99.90;;;;;;5083276;28;20047;-82
2022/09/06 06:33:31;;;;;;;0.40;0.40;;;17.50;99.90;;;;;;5075848;28;20062;-82
2022/09/06 06:36:23;;;;;;;0.40;0.40;;;17.60;99.90;;;;;;5053264;28;20043;-83
2022/09/06 06:38:53;;;;;;;0.40;0.40;;;17.50;99.90;;;;;;5063082;28;20071;-81
2022/09/06 06:41:22;;;;;;;0.40;0.40;;;17.40;99.90;;;;;;5045504;28;20036;-81
2022/09/06 06:44:10;;;;;;;0.40;0.40;;;17.50;99.90;;;;;;5070480;28;20062;-81
2022/09/06 06:46:37;;;;;;;0.40;0.40;;;17.50;99.90;;;;;;5066221;28;20036;-81
2022/09/06 06:49:04;;;;;;;0.40;0.40;;;17.40;99.90;;;;;;5084829;28;20054;-81
2022/09/06 06:51:31;;;;;;;0.40;0.40;;;17.40;99.90;;;;;;5085949;28;20842;-82
2022/09/06 06:53:57;;;;;;;0.40;0.40;;;17.40;99.90;;;;;;5069572;28;20059;-83
2022/09/06 06:56:29;;;;;;;3.00;1.38;;;17.50;99.90;;;;;;5085034;28;20036;-83
2022/09/06 06:58:58;;;;;;;0.40;0.40;;;17.60;99.90;;;;;;5086459;28;20593;-80
2022/09/06 07:01:25;;;;;;;0.40;0.40;;;17.50;99.90;;;;;;5082123;28;20071;-80
2022/09/06 07:03:51;;;;;;;0.40;0.40;;;17.60;99.90;;;;;;5067601;28;20062;-79
2022/09/06 07:06:18;;;;;;;0.40;0.40;;;17.70;99.90;;;;;;5085027;28;20179;-82
2022/09/06 07:08:45;;;;;;;0.40;0.40;;;17.50;99.90;;;;;;5084161;28;20071;-80
2022/09/06 07:11:13;;;;;;;0.40;0.40;;;17.60;99.90;;;;;;5086369;28;20143;-83
2022/09/06 07:13:39;;;;;;;0.38;0.38;;;17.60;99.90;;;;;;5086042;28;20044;-82
2022/09/06 07:16:10;;;;;;;0.40;0.40;;;17.70;99.90;;;;;;5088271;28;20082;-84
2022/09/06 07:18:40;;;;;;;0.40;0.40;;;17.70;99.90;;;;;;5083046;28;20059;-83
2022/09/06 07:21:16;;;;;;;0.40;0.40;;;17.70;99.90;;;;;;5052671;28;20040;-84
2022/09/06 07:23:43;;;;;;;0.40;0.40;;;17.80;99.90;;;;;;5083326;28;20043;-84
2022/09/06 07:26:21;;;;;;;0.40;0.40;;;17.80;99.90;;;;;;5067791;28;20047;-83
2022/09/06 07:28:50;;;;;;;0.40;0.40;;;17.90;99.90;;;;;;5065779;28;20126;-83
2022/09/06 07:31:16;;;;;;;0.50;0.50;;;18.00;99.90;;;;;;5088347;28;20126;-82
2022/09/06 07:33:42;;;;;;;0.40;0.40;;;17.90;99.90;;;;;;5086628;28;20170;-83
2022/09/06 07:36:08;;;;;;;0.50;0.50;;;18.10;99.90;;;;;;5068864;28;20435;-83
2022/09/06 07:38:34;;;;;;;0.40;0.40;;;18.10;99.90;;;;;;5081861;28;20777;-84
2022/09/06 07:41:03;;;;;;;0.40;0.40;;;18.20;99.90;;;;;;5033334;28;20051;-84
2022/09/06 07:43:29;;;;;;;0.50;0.50;;;18.30;99.90;;;;;;5050914;28;20062;-83
2022/09/06 07:46:09;;;;;;;0.40;0.40;;;18.30;99.90;;;;;;5055669;28;20043;-84
2022/09/06 07:48:37;;;;;;;0.57;0.57;;;18.40;99.90;;;;;;5068808;28;20047;-84
2022/09/06 07:51:31;;;;;;;0.40;0.40;;;18.70;99.90;;;;;;5044343;28;20043;-85
2022/09/06 07:53:57;;;;;;;0.40;0.40;;;18.80;99.90;;;;;;5058844;28;20075;-85
2022/09/06 07:56:23;;;;;;;0.40;0.40;;;19.20;99.90;;;;;;5069009;28;20051;-85
2022/09/06 07:58:50;;;;;;;0.40;0.40;;;19.50;99.90;;;;;;5044283;28;20096;-85
2022/09/06 08:01:36;;;;;;;0.40;0.40;;;19.80;99.90;;;;;;5077814;28;20133;-87
2022/09/06 08:04:09;;;;;;;0.40;0.40;;;19.90;99.90;;;;;;5070733;28;20130;-86
2022/09/06 08:06:38;;;;;;;0.40;0.40;;;20.00;99.90;;;;;;5050803;28;20048;-86
2022/09/06 08:09:06;;;;;;;0.40;0.40;;;20.00;99.90;;;;;;5049793;28;20051;-85
2022/09/06 08:11:34;;;;;;;0.40;0.40;;;20.50;99.90;;;;;;5068878;28;20150;-83
2022/09/06 08:14:01;;;;;;;0.40;0.40;;;20.90;99.90;;;;;;5040324;28;20055;-86
2022/09/06 08:16:29;;;;;;;0.40;0.40;;;21.10;99.90;;;;;;5059213;28;20730;-84
2022/09/06 08:19:03;;;;;;;0.30;0.30;;;21.60;99.90;;;;;;5054873;28;20046;-85
2022/09/06 08:21:31;;;;;;;0.40;0.40;;;21.70;99.90;;;;;;5061664;28;20488;-81
2022/09/06 08:23:59;;;;;;;0.30;0.30;;;21.90;99.90;;;;;;5058370;28;20116;-81
2022/09/06 08:26:26;;;;;;;0.30;0.30;;;22.00;99.90;;;;;;5074371;28;20636;-81
2022/09/06 08:28:54;;;;;;;0.30;0.30;;;22.00;99.90;;;;;;5056706;28;20870;-84
2022/09/06 08:31:20;;;;;;;0.40;0.40;;;22.30;99.90;;;;;;5063084;28;20047;-82
2022/09/06 08:33:46;;;;;;;0.30;0.30;;;22.10;99.90;;;;;;5063420;28;20047;-84
2022/09/06 08:36:13;;;;;;;0.30;0.30;;;22.70;99.90;;;;;;5079389;28;20055;-82
2022/09/06 08:38:39;;;;;;;0.30;0.30;;;23.10;99.90;;;;;;5072495;28;20048;-82
2022/09/06 08:41:16;;;;;;;0.30;0.30;;;23.30;99.90;;;;;;5058601;28;20047;-83
2022/09/06 08:44:08;;;;;;;0.30;0.30;;;23.40;99.90;;;;;;5078283;28;20451;-83
2022/09/06 08:46:47;;;;;;;0.30;0.30;;;23.20;99.90;;;;;;5078508;28;20127;-83
2022/09/06 08:49:13;;;;;;;0.30;0.30;;;23.60;99.90;;;;;;5060338;28;20784;-83
2022/09/06 08:51:45;;;;;;;0.30;0.30;;;23.60;99.90;;;;;;5049314;28;20044;-82
2022/09/06 08:54:38;;;;;;;0.30;0.30;;;23.70;99.90;;;;;;5046165;28;20067;-81
2022/09/06 08:57:37;;;;;;;0.40;0.40;;;23.60;99.90;;;;;;5076463;28;20047;-81
2022/09/06 09:00:08;;;;;;;0.30;0.30;;;24.00;99.90;;;;;;5078825;28;20109;-81
2022/09/06 09:02:46;;;;;;;0.30;0.30;;;23.90;99.90;;;;;;5077605;28;20195;-83
2022/09/06 09:05:31;;;;;;;0.30;0.30;;;24.30;99.90;;;;;;5060933;28;20050;-83
2022/09/06 09:08:19;;;;;;;0.30;0.30;;;24.30;99.90;;;;;;5058817;28;20314;-84
2022/09/06 09:10:49;;;;;;;0.30;0.30;;;24.50;99.90;;;;;;5076608;28;20052;-86
2022/09/06 09:13:33;;;;;;;0.30;0.30;;;23.70;99.90;;;;;;5049396;28;20093;-84
2022/09/06 09:15:59;;;;;;;0.35;0.35;;;24.10;99.90;;;;;;5062339;28;20055;-80
2022/09/06 09:18:29;;;;;;;0.30;0.30;;;24.00;99.90;;;;;;5061655;28;20078;-82
2022/09/06 09:20:57;;;;;;;0.30;0.30;;;24.40;99.90;;;;;;5081076;28;20039;-80
2022/09/06 09:23:23;;;;;;;0.30;0.30;;;24.40;99.90;;;;;;5067247;28;20051;-83
2022/09/06 09:25:52;;;;;;;0.30;0.30;;;24.30;99.90;;;;;;5059844;28;20070;-83
2022/09/06 09:28:22;;;;;;;0.30;0.30;;;24.40;99.90;;;;;;5039743;28;20392;-83
2022/09/06 09:30:51;;;;;;;0.30;0.30;;;24.30;99.90;;;;;;5061629;28;20051;-83
2022/09/06 09:33:27;;;;;;;0.30;0.30;;;24.70;99.90;;;;;;5079489;28;20053;-82
2022/09/06 09:35:54;;;;;;;0.30;0.30;;;25.10;99.90;;;;;;5076478;28;20939;-81
2022/09/06 09:38:38;;;;;;;0.30;0.30;;;25.10;99.90;;;;;;5068377;28;20075;-82
2022/09/06 09:41:06;;;;;;;0.30;0.30;;;25.00;99.90;;;;;;5077095;28;20062;-82
2022/09/06 09:43:39;;;;;;;0.30;0.30;;;24.90;99.90;;;;;;5066611;28;20063;-82
2022/09/06 09:46:28;;;;;;;0.30;0.30;;;24.80;99.90;;;;;;5079495;28;20054;-82
2022/09/06 09:49:09;;;;;;;0.30;0.30;;;24.50;99.90;;;;;;5066192;28;20071;-81
2022/09/06 09:52:03;;;;;;;0.30;0.30;;;24.60;99.90;;;;;;5064413;28;20051;-81
2022/09/06 09:54:30;;;;;;;0.30;0.30;;;25.20;99.90;;;;;;5048939;28;20345;-81
2022/09/06 09:56:57;;;;;;;0.30;0.30;;;25.60;99.90;;;;;;5067805;28;20039;-82
2022/09/06 09:59:45;;;;;;;0.30;0.30;;;25.20;99.90;;;;;;5080218;28;20473;-79
2022/09/06 10:02:33;;;;;;;0.32;0.32;;;25.50;99.90;;;;;;5084859;28;20044;-80
2022/09/06 10:05:17;;;;;;;0.30;0.30;;;25.10;99.90;;;;;;5063960;28;20040;-82
2022/09/06 10:07:50;;;;;;;0.30;0.30;;;25.70;99.90;;;;;;5084351;28;20039;-81
2022/09/06 10:10:37;;;;;;;0.30;0.30;;;25.80;99.90;;;;;;5082509;28;20035;-83
2022/09/06 10:13:08;;;;;;;0.30;0.30;;;26.10;99.90;;;;;;5065593;28;20047;-82
2022/09/06 10:15:40;;;;;;;0.30;0.30;;;26.10;99.90;;;;;;5067095;28;20171;-81
2022/09/06 10:18:16;;;;;;;0.30;0.30;;;25.50;99.90;;;;;;5066345;28;20039;-81
2022/09/06 10:20:58;;;;;;;0.30;0.30;;;25.50;99.90;;;;;;5065503;28;20062;-81
2022/09/06 10:23:43;;;;;;;0.30;0.30;;;26.10;99.90;;;;;;5083315;28;20050;-82
2022/09/06 10:26:12;;;;;;;0.30;0.30;;;26.30;99.90;;;;;;5065249;28;20495;-79
2022/09/06 10:28:42;;;;;;;0.30;0.30;;;26.30;99.90;;;;;;5081934;28;20104;-82
2022/09/06 10:31:14;;;;;;;0.30;0.30;;;26.10;99.90;;;;;;5084562;28;20032;-81
2022/09/06 10:34:02;;;;;;;0.30;0.30;;;26.40;99.90;;;;;;5083671;28;20065;-80
2022/09/06 10:36:37;;;;;;;0.40;0.40;;;26.40;99.90;;;;;;5082094;28;20066;-81
2022/09/06 10:39:37;;;;;;;0.30;0.30;;;26.80;99.90;;;;;;5082776;28;20044;-82
2022/09/06 10:42:19;;;;;;;0.30;0.30;;;26.30;99.90;;;;;;5081950;28;20047;-83
2022/09/06 10:44:51;;;;;;;0.30;0.30;;;26.20;99.90;;;;;;5066526;28;20048;-83
2022/09/06 10:47:18;;;;;;;0.30;0.30;;;26.10;99.90;;;;;;5081383;28;20035;-81
2022/09/06 10:49:49;;;;;;;0.30;0.30;;;26.50;99.90;;;;;;5066511;28;20074;-83
2022/09/06 10:52:24;;;;;;;0.30;0.30;;;27.20;99.90;;;;;;5085346;28;20104;-82
2022/09/06 10:54:53;;;;;;;0.30;0.30;;;27.30;99.90;;;;;;5085219;28;20252;-80
2022/09/06 10:57:32;;;;;;;0.30;0.30;;;26.30;99.90;;;;;;5082724;28;20509;-79
2022/09/06 11:00:11;;;;;;;0.30;0.30;;;26.60;99.90;;;;;;5063984;28;20043;-79
2022/09/06 11:02:55;;;;;;;0.30;0.30;;;27.00;99.90;;;;;;5083390;28;21004;-79
2022/09/06 11:05:36;;;;;;;0.30;0.30;;;26.50;99.90;;;;;;5066624;28;20108;-80
2022/09/06 11:08:06;;;;;;;0.30;0.30;;;26.80;99.90;;;;;;5086571;28;20043;-82
2022/09/06 11:10:36;;;;;;;0.30;0.30;;;27.10;99.90;;;;;;5083869;28;20032;-82
2022/09/06 11:13:17;;;;;;;0.30;0.30;;;27.30;99.90;;;;;;5080471;28;20035;-81
2022/09/06 11:16:07;;;;;;;0.30;0.30;;;27.60;99.90;;;;;;5065504;28;20835;-82
2022/09/06 11:18:45;;;;;;;0.22;0.22;;;28.10;99.90;;;;;;5064347;28;20372;-81
2022/09/06 11:21:20;;;;;;;0.30;0.30;;;28.10;99.90;;;;;;5062416;28;20079;-84
2022/09/06 11:24:21;;;;;;;0.30;0.30;;;28.60;99.90;;;;;;5079616;28;20050;-81
2022/09/06 11:27:11;;;;;;;0.25;0.25;;;28.70;99.90;;;;;;5037872;28;20511;-84
2022/09/06 11:29:43;;;;;;;0.30;0.30;;;27.50;99.90;;;;;;5061889;28;20047;-83
2022/09/06 11:32:31;;;;;;;0.30;0.30;;;27.80;99.90;;;;;;5078729;28;20054;-82
2022/09/06 11:35:00;;;;;;;0.30;0.30;;;28.50;99.90;;;;;;5078959;28;20039;-81
2022/09/06 11:37:35;;;;;;;0.30;0.30;;;27.70;99.90;;;;;;5077266;28;20951;-83
2022/09/06 11:40:15;;;;;;;0.30;0.30;;;27.80;99.90;;;;;;5061262;28;20100;-82
2022/09/06 11:43:02;;;;;;;0.30;0.30;;;28.20;99.90;;;;;;5065493;28;20047;-83
2022/09/06 11:45:47;;;;;;;0.20;0.20;;;28.50;99.90;;;;;;5082573;28;20051;-80
2022/09/06 11:48:25;;;;;;;0.20;0.20;;;28.50;99.90;;;;;;5078449;28;20515;-82
2022/09/06 11:50:59;;;;;;;0.30;0.30;;;27.80;99.90;;;;;;5080320;28;20056;-84
2022/09/06 11:53:30;;;;;;;0.30;0.30;;;27.90;99.90;;;;;;5081434;28;20100;-79
2022/09/06 11:55:58;;;;;;;0.20;0.20;;;28.20;99.90;;;;;;5079356;28;20052;-78
2022/09/06 11:59:06;;;;;;;0.30;0.30;;;27.80;99.90;;;;;;5063703;28;20044;-82
2022/09/06 12:01:34;;;;;;;0.30;0.30;;;28.10;99.90;;;;;;4970339;28;20057;-84
2022/09/06 12:04:01;;;;;;;0.30;0.30;;;28.60;99.90;;;;;;5063492;28;20047;-84
2022/09/06 12:06:32;;;;;;;0.25;0.25;;;28.30;99.90;;;;;;5047690;28;20036;-83
2022/09/06 12:08:58;;;;;;;0.25;0.25;;;28.60;99.90;;;;;;5083166;28;20493;-80
2022/09/06 12:11:45;;;;;;;0.30;0.30;;;28.80;99.90;;;;;;5048354;28;20051;-82
2022/09/06 12:14:29;;;;;;;0.30;0.30;;;28.60;99.90;;;;;;5064244;28;20050;-81
2022/09/06 12:17:03;;;;;;;0.30;0.30;;;29.00;99.90;;;;;;5080119;28;20043;-83
2022/09/06 12:20:03;;;;;;;0.30;0.30;;;29.40;99.80;;;;;;5064742;28;20122;-81
2022/09/06 12:22:32;;;;;;;0.20;0.20;;;30.10;99.90;;;;;;5081519;28;20536;-81
2022/09/06 12:25:14;;;;;;;0.30;0.30;;;29.90;99.50;;;;;;5080137;28;20043;-83
2022/09/06 12:27:52;;;;;;;0.20;0.20;;;29.90;98.40;;;;;;5057872;28;20048;-82
2022/09/06 12:30:41;;;;;;;0.20;0.20;;;29.90;98.30;;;;;;5063292;28;21002;-83
2022/09/06 12:33:15;;;;;;;0.20;0.20;;;29.90;98.50;;;;;;5080523;28;20082;-82
2022/09/06 12:35:41;;;;;;;0.22;0.22;;;29.50;98.10;;;;;;5080812;28;20092;-84
2022/09/06 12:38:12;;;;;;;0.20;0.20;;;29.50;96.50;;;;;;5062483;28;20047;-82
2022/09/06 12:40:44;;;;;;;0.22;0.22;;;29.90;98.10;;;;;;5079474;28;20055;-82
2022/09/06 12:43:13;;;;;;;0.20;0.20;;;28.90;96.70;;;;;;5065724;28;20051;-84
2022/09/06 12:45:49;;;;;;;0.30;0.30;;;29.40;97.60;;;;;;5081805;28;20135;-88
2022/09/06 12:48:30;;;;;;;0.30;0.30;;;29.00;97.50;;;;;;5063832;28;20039;-82
2022/09/06 12:51:03;;;;;;;0.28;0.28;;;28.40;95.90;;;;;;5058960;28;20459;-82
2022/09/06 12:53:30;;;;;;;0.30;0.30;;;28.80;97.90;;;;;;5064188;28;20035;-82
2022/09/06 12:56:23;;;;;;;0.30;0.30;;;28.90;96.70;;;;;;5077214;28;20048;-82
2022/09/06 12:58:49;;;;;;;0.20;0.20;;;28.60;96.60;;;;;;5057875;28;20112;-82
2022/09/06 13:01:26;;;;;;;0.22;0.22;;;29.20;97.60;;;;;;5061687;28;20835;-83
2022/09/06 13:04:01;;;;;;;0.22;0.22;;;29.70;96.90;;;;;;5060628;28;20066;-81
2022/09/06 13:06:32;;;;;;;0.30;0.30;;;30.10;97.10;;;;;;5063186;28;20150;-82
2022/09/06 13:08:58;;;;;;;0.30;0.30;;;29.70;95.80;;;;;;5056614;28;20118;-82
2022/09/06 13:11:33;;;;;;;0.25;0.25;;;29.70;96.30;;;;;;5064061;28;20118;-82
2022/09/06 13:14:01;;;;;;;0.20;0.20;;;29.30;96.60;;;;;;5087021;28;20043;-84